createdAt,value
2023-04-19T00:02:29.273Z,100.00
2023-04-19T00:05:34.626Z,100.00
2023-04-19T00:08:38.168Z,100.00
2023-04-19T00:11:42.214Z,100.00
2023-04-19T00:14:45.804Z,100.00
2023-04-19T00:17:49.575Z,100.00
2023-04-19T00:20:54.669Z,100.00
2023-04-19T00:23:58.152Z,100.00
2023-04-19T00:27:02.544Z,100.00
2023-04-19T00:30:07.456Z,100.00
2023-04-19T00:33:13.288Z,100.00
2023-04-19T00:36:18.478Z,100.00
2023-04-19T00:39:23.704Z,100.00
2023-04-19T00:42:27.239Z,100.00
2023-04-19T00:45:30.829Z,100.00
2023-04-19T00:48:36.364Z,100.00
2023-04-19T00:51:41.359Z,100.00
2023-04-19T00:54:45.077Z,100.00
2023-04-19T00:57:52.309Z,100.00
2023-04-19T01:00:55.983Z,100.00
2023-04-19T01:03:59.961Z,100.00
2023-04-19T01:07:05.046Z,100.00
2023-04-19T01:10:09.039Z,100.00
2023-04-19T01:13:12.634Z,100.00
2023-04-19T01:16:16.304Z,100.00
2023-04-19T01:19:19.900Z,100.00
2023-04-19T01:22:24.934Z,100.00
2023-04-19T01:25:28.708Z,100.00
2023-04-19T01:28:32.423Z,100.00
2023-04-19T01:31:36.212Z,100.00
2023-04-19T01:34:40.913Z,100.00
2023-04-19T01:37:45.801Z,100.00
2023-04-19T01:40:49.275Z,100.00
2023-04-19T01:43:52.855Z,100.00
2023-04-19T01:46:56.573Z,100.00
2023-04-19T01:50:00.249Z,100.00
2023-04-19T01:53:05.290Z,100.00
2023-04-19T01:56:09.495Z,98.48
2023-04-19T01:59:14.004Z,100.00
2023-04-19T02:02:17.654Z,98.90
2023-04-19T02:05:21.249Z,99.24
2023-04-19T02:08:26.371Z,98.71
2023-04-19T02:11:30.044Z,98.87
2023-04-19T02:14:33.648Z,99.62
2023-04-19T02:17:37.403Z,99.40
2023-04-19T02:20:40.993Z,100.00
2023-04-19T02:23:45.938Z,99.58
2023-04-19T02:26:49.563Z,99.22
2023-04-19T02:29:52.987Z,99.20
2023-04-19T02:32:56.761Z,98.99
2023-04-19T02:36:00.300Z,98.31
2023-04-19T02:39:05.830Z,99.31
2023-04-19T02:42:09.427Z,99.51
2023-04-19T02:45:13.209Z,98.24
2023-04-19T02:48:16.780Z,99.07
2023-04-19T02:51:20.456Z,99.44
2023-04-19T02:54:25.656Z,99.76
2023-04-19T02:57:29.778Z,100.00
2023-04-19T03:00:33.374Z,99.69
2023-04-19T03:03:43.488Z,99.72
2023-04-19T03:06:47.285Z,98.64
2023-04-19T03:09:52.495Z,98.27
2023-04-19T03:12:56.866Z,99.30
2023-04-19T03:16:00.743Z,100.00
2023-04-19T03:19:06.064Z,100.00
2023-04-19T03:22:15.287Z,100.00
2023-04-19T03:25:21.213Z,100.00
2023-04-19T03:28:32.231Z,100.00
2023-04-19T03:31:53.178Z,99.79
2023-04-19T03:34:56.803Z,100.00
2023-04-19T03:38:00.591Z,99.41
2023-04-19T03:41:05.718Z,98.19
2023-04-19T03:44:13.975Z,97.83
2023-04-19T03:47:20.600Z,98.04
2023-04-19T03:50:26.435Z,98.81
2023-04-19T03:53:32.599Z,97.60
2023-04-19T03:56:38.360Z,97.09
2023-04-19T03:59:42.738Z,97.93
2023-04-19T04:02:47.495Z,96.35
2023-04-19T04:05:51.512Z,98.97
2023-04-19T04:08:55.284Z,97.01
2023-04-19T04:12:00.511Z,97.76
2023-04-19T04:15:04.406Z,96.58
2023-04-19T04:18:11.128Z,97.52
2023-04-19T04:21:15.163Z,96.74
2023-04-19T04:24:23.599Z,94.92
2023-04-19T04:28:04.218Z,94.24
2023-04-19T04:31:08.306Z,93.77
2023-04-19T04:34:12.825Z,96.12
2023-04-19T04:37:26.101Z,93.46
2023-04-19T04:40:30.031Z,93.62
2023-04-19T04:43:35.689Z,92.19
2023-04-19T04:46:39.472Z,92.68
2023-04-19T04:49:43.591Z,92.04
2023-04-19T04:52:47.416Z,93.35
2023-04-19T04:55:59.183Z,91.80
2023-04-19T04:59:04.565Z,91.86
2023-04-19T05:02:14.339Z,91.77
2023-04-19T05:05:18.356Z,92.11
2023-04-19T05:08:22.129Z,92.60
2023-04-19T05:11:26.196Z,90.82
2023-04-19T05:14:32.286Z,89.89
2023-04-19T05:17:36.414Z,90.06
2023-04-19T05:20:40.423Z,90.66
2023-04-19T05:23:54.749Z,89.96
2023-04-19T05:26:59.906Z,90.23
2023-04-19T05:30:05.535Z,89.45
2023-04-19T05:33:10.825Z,88.92
2023-04-19T05:36:15.616Z,89.26
2023-04-19T05:39:19.459Z,88.72
2023-04-19T05:42:23.179Z,88.14
2023-04-19T05:45:28.426Z,88.04
2023-04-19T05:48:32.157Z,88.28
2023-04-19T05:51:58.620Z,88.37
2023-04-19T05:55:23.883Z,88.85
2023-04-19T05:58:27.944Z,86.67
2023-04-19T06:01:33.765Z,86.92
2023-04-19T06:04:37.901Z,86.62
2023-04-19T06:07:47.224Z,86.04
2023-04-19T06:11:02.226Z,85.28
2023-04-19T06:14:12.624Z,85.89
2023-04-19T06:17:23.584Z,85.65
2023-04-19T06:20:27.369Z,85.26
2023-04-19T06:23:30.991Z,83.74
2023-04-19T06:26:34.809Z,84.50
2023-04-19T06:29:38.592Z,81.97
2023-04-19T06:32:43.976Z,81.80
2023-04-19T06:35:47.648Z,81.55
2023-04-19T06:38:51.403Z,81.50
2023-04-19T06:41:55.044Z,80.37
2023-04-19T06:44:59.392Z,78.52
2023-04-19T06:48:04.870Z,77.09
2023-04-19T06:51:08.654Z,76.85
2023-04-19T06:54:12.329Z,76.85
2023-04-19T06:57:16.039Z,77.02
2023-04-19T07:00:20.423Z,76.47
2023-04-19T07:03:25.801Z,75.80
2023-04-19T07:06:29.921Z,75.80
2023-04-19T07:09:33.544Z,72.66
2023-04-19T07:12:37.218Z,70.32
2023-04-19T07:15:41.025Z,69.24
2023-04-19T07:18:46.253Z,68.98
2023-04-19T07:21:50.159Z,69.44
2023-04-19T07:24:54.127Z,69.22
2023-04-19T07:27:57.908Z,69.26
2023-04-19T07:31:01.918Z,68.26
2023-04-19T07:34:06.983Z,67.59
2023-04-19T07:37:10.871Z,67.46
2023-04-19T07:40:15.201Z,69.00
2023-04-19T07:43:18.949Z,68.41
2023-04-19T07:46:22.667Z,66.67
2023-04-19T07:49:27.856Z,67.65
2023-04-19T07:52:31.542Z,66.79
2023-04-19T07:55:35.533Z,65.67
2023-04-19T07:58:41.753Z,65.06
2023-04-19T08:01:45.777Z,65.13
2023-04-19T08:04:52.339Z,62.77
2023-04-19T08:07:57.075Z,63.86
2023-04-19T08:11:02.488Z,62.40
2023-04-19T08:14:26.829Z,62.39
2023-04-19T08:17:37.074Z,63.42
2023-04-19T08:20:47.703Z,62.35
2023-04-19T08:23:54.164Z,62.07
2023-04-19T08:26:59.966Z,63.23
2023-04-19T08:30:04.799Z,62.50
2023-04-19T08:33:08.682Z,60.73
2023-04-19T08:36:16.977Z,60.03
2023-04-19T08:39:32.479Z,60.26
2023-04-19T08:42:37.575Z,61.20
2023-04-19T08:45:41.794Z,60.70
2023-04-19T08:48:46.773Z,58.84
2023-04-19T08:51:52.908Z,58.69
2023-04-19T08:54:57.442Z,57.37
2023-04-19T08:58:04.118Z,57.06
2023-04-19T09:01:17.058Z,57.34
2023-04-19T09:04:36.835Z,57.18
2023-04-19T09:07:43.676Z,56.79
2023-04-19T09:10:55.276Z,56.22
2023-04-19T09:14:09.819Z,57.02
2023-04-19T09:17:17.887Z,57.95
2023-04-19T09:20:38.407Z,57.11
2023-04-19T09:23:49.010Z,57.77
2023-04-19T09:26:58.134Z,58.33
2023-04-19T09:30:03.647Z,58.43
2023-04-19T09:33:07.708Z,57.86
2023-04-19T09:36:13.705Z,57.93
2023-04-19T09:39:30.186Z,57.76
2023-04-19T09:45:53.618Z,56.12
2023-04-19T09:48:58.804Z,54.19
2023-04-19T09:52:05.321Z,52.63
2023-04-19T09:55:22.180Z,51.12
2023-04-19T09:58:38.269Z,51.52
2023-04-19T10:01:56.606Z,48.96
2023-04-19T10:05:16.313Z,49.90
2023-04-19T10:08:24.034Z,48.86
2023-04-19T10:11:37.242Z,48.87
2023-04-19T10:14:42.070Z,50.80
2023-04-19T10:17:45.881Z,51.68
2023-04-19T10:20:54.617Z,51.78
2023-04-19T10:23:59.139Z,51.80
2023-04-19T10:27:14.944Z,50.83
2023-04-19T10:30:20.658Z,53.41
2023-04-19T10:33:29.391Z,54.20
2023-04-19T10:36:33.969Z,53.60
2023-04-19T10:39:45.295Z,52.05
2023-04-19T10:43:20.608Z,51.89
2023-04-19T10:46:40.222Z,51.72
2023-04-19T10:49:47.651Z,51.22
2023-04-19T10:52:51.335Z,48.41
2023-04-19T10:55:55.003Z,48.11
2023-04-19T10:59:26.099Z,46.01
2023-04-19T11:02:31.132Z,47.76
2023-04-19T11:06:27.502Z,46.36
2023-04-19T11:09:34.793Z,46.86
2023-04-19T11:12:38.789Z,47.63
2023-04-19T11:15:46.144Z,47.76
2023-04-19T11:18:50.274Z,48.52
2023-04-19T11:21:53.917Z,48.20
2023-04-19T11:24:57.717Z,48.68
2023-04-19T11:28:02.124Z,49.80
2023-04-19T11:31:07.698Z,50.88
2023-04-19T11:34:11.385Z,50.95
2023-04-19T11:37:15.059Z,50.89
2023-04-19T11:40:20.444Z,51.10
2023-04-19T11:43:24.160Z,52.10
2023-04-19T11:46:29.396Z,52.91
2023-04-19T11:49:34.503Z,52.68
2023-04-19T11:52:38.288Z,52.63
2023-04-19T11:55:44.749Z,53.71
2023-04-19T11:58:49.393Z,53.24
2023-04-19T12:01:54.579Z,57.73
2023-04-19T12:05:08.673Z,58.57
2023-04-19T12:08:12.381Z,58.76
2023-04-19T12:11:17.029Z,60.81
2023-04-19T12:14:23.143Z,62.32
2023-04-19T12:17:28.781Z,64.54
2023-04-19T12:20:36.817Z,68.05
2023-04-19T12:23:40.682Z,71.74
2023-04-19T12:26:56.245Z,74.77
2023-04-19T12:30:00.217Z,78.84
2023-04-19T12:33:06.245Z,81.58
2023-04-19T12:36:10.706Z,81.57
2023-04-19T12:39:14.752Z,86.00
2023-04-19T12:42:18.604Z,86.41
2023-04-19T12:45:22.656Z,88.49
2023-04-19T12:48:27.902Z,89.83
2023-04-19T12:51:32.035Z,90.07
2023-04-19T12:54:36.046Z,87.15
2023-04-19T12:57:39.732Z,85.95
2023-04-19T13:00:43.495Z,85.17
2023-04-19T13:03:48.833Z,84.48
2023-04-19T13:06:52.714Z,83.08
2023-04-19T13:09:57.088Z,83.61
2023-04-19T13:13:00.922Z,83.35
2023-04-19T13:16:04.674Z,82.25
2023-04-19T13:19:09.887Z,79.99
2023-04-19T13:22:13.593Z,81.10
2023-04-19T13:25:17.397Z,82.57
2023-04-19T13:28:21.103Z,78.22
2023-04-19T13:31:24.848Z,77.27
2023-04-19T13:34:30.396Z,78.71
2023-04-19T13:37:34.154Z,79.96
2023-04-19T13:40:37.800Z,79.62
2023-04-19T13:43:41.538Z,78.93
2023-04-19T13:46:45.341Z,76.54
2023-04-19T13:49:52.457Z,78.24
2023-04-19T13:52:56.347Z,76.00
2023-04-19T13:56:00.154Z,74.66
2023-04-19T13:59:04.077Z,74.47
2023-04-19T14:02:07.949Z,72.94
2023-04-19T14:05:13.206Z,70.67
2023-04-19T14:08:16.979Z,69.55
2023-04-19T14:11:21.087Z,73.43
2023-04-19T14:14:24.858Z,74.39
2023-04-19T14:17:28.502Z,76.31
2023-04-19T14:20:33.676Z,77.71
2023-04-19T14:23:37.389Z,79.71
2023-04-19T14:26:41.187Z,79.68
2023-04-19T14:29:44.841Z,81.15
2023-04-19T14:32:48.789Z,79.47
2023-04-19T14:35:53.897Z,77.66
2023-04-19T14:38:57.562Z,79.38
2023-04-19T14:42:01.316Z,79.60
2023-04-19T14:45:05.318Z,80.36
2023-04-19T14:48:09.036Z,78.34
2023-04-19T14:51:14.262Z,78.34
2023-04-19T14:54:18.019Z,76.50
2023-04-19T14:57:21.752Z,74.65
2023-04-19T15:00:25.526Z,73.72
2023-04-19T15:03:29.308Z,73.59
2023-04-19T15:06:34.703Z,73.02
2023-04-19T15:09:38.445Z,72.60
2023-04-19T15:12:42.341Z,72.06
2023-04-19T15:15:45.957Z,71.48
2023-04-19T15:18:49.810Z,71.39
2023-04-19T15:21:54.896Z,72.21
2023-04-19T15:24:58.525Z,72.34
2023-04-19T15:28:02.265Z,75.15
2023-04-19T15:31:07.956Z,78.27
2023-04-19T15:34:11.761Z,80.25
2023-04-19T15:37:16.945Z,80.75
2023-04-19T15:40:21.518Z,80.21
2023-04-19T15:43:27.701Z,79.48
2023-04-19T15:46:31.433Z,78.53
2023-04-19T15:49:35.255Z,77.14
2023-04-19T15:52:40.319Z,76.32
2023-04-19T15:55:44.488Z,75.55
2023-04-19T15:58:48.169Z,73.11
2023-04-19T16:01:52.028Z,71.77
2023-04-19T16:04:55.989Z,70.15
2023-04-19T16:08:05.932Z,71.04
2023-04-19T16:11:09.815Z,71.14
2023-04-19T16:14:13.490Z,71.38
2023-04-19T16:17:17.229Z,70.84
2023-04-19T16:20:21.843Z,70.94
2023-04-19T16:23:27.256Z,70.81
2023-04-19T16:26:30.939Z,71.46
2023-04-19T16:29:34.956Z,71.36
2023-04-19T16:32:38.752Z,72.65
2023-04-19T16:35:42.380Z,72.81
2023-04-19T16:38:47.494Z,72.22
2023-04-19T16:41:51.169Z,73.01
2023-04-19T16:44:54.904Z,73.02
2023-04-19T16:47:58.641Z,72.45
2023-04-19T16:51:02.430Z,72.84
2023-04-19T16:54:07.764Z,72.70
2023-04-19T16:57:11.863Z,72.31
2023-04-19T17:00:16.530Z,72.29
2023-04-19T17:03:20.556Z,72.68
2023-04-19T17:06:24.341Z,71.63
2023-04-19T17:09:29.905Z,70.92
2023-04-19T17:12:33.520Z,70.44
2023-04-19T17:15:39.107Z,70.46
2023-04-19T17:18:42.874Z,69.49
2023-04-19T17:21:46.536Z,71.25
2023-04-19T17:24:51.766Z,70.98
2023-04-19T17:27:55.457Z,71.52
2023-04-19T17:30:59.198Z,71.91
2023-04-19T17:34:02.949Z,72.72
2023-04-19T17:37:06.668Z,75.32
2023-04-19T17:40:12.996Z,76.00
2023-04-19T17:43:16.706Z,77.66
2023-04-19T17:46:21.071Z,78.72
2023-04-19T17:49:26.777Z,79.64
2023-04-19T17:52:30.491Z,79.94
2023-04-19T17:55:35.857Z,81.01
2023-04-19T17:58:39.654Z,81.78
2023-04-19T18:01:43.407Z,82.39
2023-04-19T18:04:47.395Z,81.78
2023-04-19T18:07:51.507Z,86.16
2023-04-19T18:10:56.655Z,88.97
2023-04-19T18:14:00.384Z,88.46
2023-04-19T18:17:05.817Z,91.35
2023-04-19T18:20:12.451Z,90.39
2023-04-19T18:23:17.314Z,92.79
2023-04-19T18:26:22.790Z,90.71
2023-04-19T18:29:26.464Z,90.03
2023-04-19T18:32:32.077Z,90.80
2023-04-19T18:35:36.854Z,89.69
2023-04-19T18:38:40.843Z,90.33
2023-04-19T18:41:46.012Z,87.58
2023-04-19T18:44:54.301Z,90.10
2023-04-19T18:47:58.559Z,89.79
2023-04-19T18:51:02.454Z,91.91
2023-04-19T18:54:06.362Z,96.38
2023-04-19T18:57:23.109Z,96.66
2023-04-19T19:00:28.061Z,98.12
2023-04-19T19:03:56.788Z,97.64
2023-04-19T19:06:56.875Z,95.32
2023-04-19T19:10:10.741Z,93.78
2023-04-19T19:13:23.117Z,93.78
2023-04-19T19:16:27.485Z,94.94
2023-04-19T19:19:31.459Z,92.86
2023-04-19T19:22:35.277Z,94.11
2023-04-19T19:25:39.010Z,91.63
2023-04-19T19:28:44.015Z,91.79
2023-04-19T19:31:47.780Z,91.58
2023-04-19T19:34:56.284Z,91.00
2023-04-19T19:38:04.769Z,91.13
2023-04-19T19:41:49.528Z,90.80
2023-04-19T19:44:33.815Z,91.17
2023-04-19T19:47:43.411Z,91.11
2023-04-19T19:51:17.321Z,91.06
2023-04-19T19:54:12.881Z,91.63
2023-04-19T20:00:42.881Z,92.12
2023-04-19T20:03:49.241Z,90.99
2023-04-19T20:09:59.700Z,92.62
2023-04-19T20:13:03.670Z,91.90
2023-04-19T20:16:10.224Z,91.33
2023-04-19T20:19:14.832Z,93.49
2023-04-19T20:22:18.584Z,92.87
2023-04-19T20:25:22.254Z,92.92
2023-04-19T20:28:26.763Z,95.54
2023-04-19T20:31:32.137Z,95.57
2023-04-19T20:34:35.844Z,94.57
2023-04-19T20:37:41.145Z,96.30
2023-04-19T20:40:44.866Z,95.05
2023-04-19T20:43:48.616Z,95.75
2023-04-19T20:46:53.957Z,97.71
2023-04-19T20:49:57.689Z,96.71
2023-04-19T20:53:01.602Z,98.65
2023-04-19T20:56:05.497Z,97.23
2023-04-19T20:59:09.176Z,96.42
2023-04-19T21:02:14.365Z,95.36
2023-04-19T21:05:18.023Z,94.40
2023-04-19T21:08:21.744Z,95.36
2023-04-19T21:11:25.690Z,96.86
2023-04-19T21:14:30.395Z,93.49
2023-04-19T21:17:35.721Z,92.14
2023-04-19T21:20:39.743Z,92.15
2023-04-19T21:23:43.527Z,92.34
2023-04-19T21:26:47.356Z,93.18
2023-04-19T21:29:51.114Z,92.39
2023-04-19T21:32:56.327Z,92.00
2023-04-19T21:36:00.168Z,93.25
2023-04-19T21:39:04.332Z,94.89
2023-04-19T21:42:08.239Z,93.88
2023-04-19T21:45:12.952Z,95.46
2023-04-19T21:48:18.169Z,96.36
2023-04-19T21:51:21.872Z,96.54
2023-04-19T21:54:33.452Z,95.01
2023-04-19T21:57:38.589Z,96.66
2023-04-19T22:00:42.455Z,96.37
2023-04-19T22:03:47.837Z,95.96
2023-04-19T22:06:51.775Z,95.59
2023-04-19T22:09:57.150Z,95.39
2023-04-19T22:13:02.602Z,96.51
2023-04-19T22:16:07.346Z,94.68
2023-04-19T22:19:12.885Z,93.30
2023-04-19T22:22:17.146Z,92.17
2023-04-19T22:25:21.135Z,90.68
2023-04-19T22:28:25.249Z,91.53
2023-04-19T22:31:29.020Z,93.89
2023-04-19T22:34:34.237Z,95.93
2023-04-19T22:37:38.021Z,98.17
2023-04-19T22:40:46.497Z,95.87
2023-04-19T22:43:58.821Z,97.70
2023-04-19T22:47:08.383Z,96.46
2023-04-19T22:50:23.751Z,95.24
2023-04-19T22:53:29.764Z,94.62
2023-04-19T22:56:33.795Z,94.96
2023-04-19T22:59:41.827Z,95.21
2023-04-19T23:03:00.779Z,94.86
2023-04-19T23:06:17.338Z,96.54
2023-04-19T23:09:29.879Z,95.24
2023-04-19T23:12:33.770Z,96.29
2023-04-19T23:15:37.714Z,95.46
2023-04-19T23:18:41.662Z,95.76
2023-04-19T23:21:46.807Z,94.25
2023-04-19T23:24:50.513Z,93.14
2023-04-19T23:27:54.195Z,92.87
2023-04-19T23:30:57.997Z,91.92
2023-04-19T23:34:01.730Z,91.49
2023-04-19T23:37:06.906Z,92.97
2023-04-19T23:40:11.637Z,91.43
2023-04-19T23:43:15.409Z,91.46
2023-04-19T23:46:19.106Z,90.83
2023-04-19T23:49:22.961Z,90.84
2023-04-19T23:52:27.972Z,90.54
2023-04-19T23:55:31.605Z,93.11
2023-04-19T23:58:35.315Z,92.21
